sensor_id;sensor_type;location;lat;lon;timestamp;temperature;humidity
37086;DHT22;23001;45.952;12.676;2024-03-22T00:01:13;11.10;99.90
37086;DHT22;23001;45.952;12.676;2024-03-22T00:03:39;11.20;99.90
37086;DHT22;23001;45.952;12.676;2024-03-22T00:06:04;11.30;99.90
37086;DHT22;23001;45.952;12.676;2024-03-22T00:08:30;11.10;99.90
37086;DHT22;23001;45.952;12.676;2024-03-22T00:10:56;10.90;99.90
37086;DHT22;23001;45.952;12.676;2024-03-22T00:13:22;10.80;99.90
37086;DHT22;23001;45.952;12.676;2024-03-22T00:15:48;10.90;99.90
37086;DHT22;23001;45.952;12.676;2024-03-22T00:18:14;10.90;99.90
37086;DHT22;23001;45.952;12.676;2024-03-22T00:20:39;11.00;99.90
37086;DHT22;23001;45.952;12.676;2024-03-22T00:23:05;11.00;99.90
37086;DHT22;23001;45.952;12.676;2024-03-22T00:25:33;10.90;99.90
37086;DHT22;23001;45.952;12.676;2024-03-22T00:27:59;10.90;99.90
37086;DHT22;23001;45.952;12.676;2024-03-22T00:30:25;10.90;99.90
37086;DHT22;23001;45.952;12.676;2024-03-22T00:32:51;10.80;99.90
37086;DHT22;23001;45.952;12.676;2024-03-22T00:35:16;10.80;99.90
37086;DHT22;23001;45.952;12.676;2024-03-22T00:37:42;10.70;99.90
37086;DHT22;23001;45.952;12.676;2024-03-22T00:40:08;10.70;99.90
37086;DHT22;23001;45.952;12.676;2024-03-22T00:42:34;10.60;99.90
37086;DHT22;23001;45.952;12.676;2024-03-22T00:45:00;10.60;99.90
37086;DHT22;23001;45.952;12.676;2024-03-22T00:47:26;10.60;99.90
37086;DHT22;23001;45.952;12.676;2024-03-22T00:49:51;10.60;99.90
37086;DHT22;23001;45.952;12.676;2024-03-22T00:52:17;10.60;99.90
37086;DHT22;23001;45.952;12.676;2024-03-22T00:54:43;10.50;99.90
37086;DHT22;23001;45.952;12.676;2024-03-22T00:57:09;10.50;99.90
37086;DHT22;23001;45.952;12.676;2024-03-22T00:59:34;10.50;99.90
37086;DHT22;23001;45.952;12.676;2024-03-22T01:02:00;10.50;99.90
37086;DHT22;23001;45.952;12.676;2024-03-22T01:04:26;10.50;99.90
37086;DHT22;23001;45.952;12.676;2024-03-22T01:06:51;10.50;99.90
37086;DHT22;23001;45.952;12.676;2024-03-22T01:09:17;10.50;99.90
37086;DHT22;23001;45.952;12.676;2024-03-22T01:11:45;10.40;99.90
37086;DHT22;23001;45.952;12.676;2024-03-22T01:14:10;10.40;99.90
37086;DHT22;23001;45.952;12.676;2024-03-22T01:16:36;10.50;99.90
37086;DHT22;23001;45.952;12.676;2024-03-22T01:19:02;10.40;99.90
37086;DHT22;23001;45.952;12.676;2024-03-22T01:21:27;10.30;99.90
37086;DHT22;23001;45.952;12.676;2024-03-22T01:23:53;10.30;99.90
37086;DHT22;23001;45.952;12.676;2024-03-22T01:26:19;10.40;99.90
37086;DHT22;23001;45.952;12.676;2024-03-22T01:28:44;10.40;99.90
37086;DHT22;23001;45.952;12.676;2024-03-22T01:31:10;10.40;99.90
37086;DHT22;23001;45.952;12.676;2024-03-22T01:33:36;10.40;99.90
37086;DHT22;23001;45.952;12.676;2024-03-22T01:36:01;10.30;99.90
37086;DHT22;23001;45.952;12.676;2024-03-22T01:38:27;10.40;99.90
37086;DHT22;23001;45.952;12.676;2024-03-22T01:40:53;10.30;99.90
37086;DHT22;23001;45.952;12.676;2024-03-22T01:43:19;10.30;99.90
37086;DHT22;23001;45.952;12.676;2024-03-22T01:45:44;10.20;99.90
37086;DHT22;23001;45.952;12.676;2024-03-22T01:48:11;10.10;99.90
37086;DHT22;23001;45.952;12.676;2024-03-22T01:50:37;10.10;99.90
37086;DHT22;23001;45.952;12.676;2024-03-22T01:53:03;10.20;99.90
37086;DHT22;23001;45.952;12.676;2024-03-22T01:55:30;10.20;99.90
37086;DHT22;23001;45.952;12.676;2024-03-22T01:57:55;10.20;99.90
37086;DHT22;23001;45.952;12.676;2024-03-22T02:00:22;10.10;99.90
37086;DHT22;23001;45.952;12.676;2024-03-22T02:02:47;10.10;99.90
37086;DHT22;23001;45.952;12.676;2024-03-22T02:05:14;10.10;99.90
37086;DHT22;23001;45.952;12.676;2024-03-22T02:07:41;10.00;99.90
37086;DHT22;23001;45.952;12.676;2024-03-22T02:10:08;10.10;99.90
37086;DHT22;23001;45.952;12.676;2024-03-22T02:12:37;10.10;99.90
37086;DHT22;23001;45.952;12.676;2024-03-22T02:15:02;10.00;99.90
37086;DHT22;23001;45.952;12.676;2024-03-22T02:17:28;9.90;99.90
37086;DHT22;23001;45.952;12.676;2024-03-22T02:19:54;10.00;99.90
37086;DHT22;23001;45.952;12.676;2024-03-22T02:22:20;9.90;99.90
37086;DHT22;23001;45.952;12.676;2024-03-22T02:24:45;9.80;99.90
37086;DHT22;23001;45.952;12.676;2024-03-22T02:27:11;9.80;99.90
37086;DHT22;23001;45.952;12.676;2024-03-22T02:29:37;9.80;99.90
37086;DHT22;23001;45.952;12.676;2024-03-22T02:32:05;9.80;99.90
37086;DHT22;23001;45.952;12.676;2024-03-22T02:34:31;9.80;99.90
37086;DHT22;23001;45.952;12.676;2024-03-22T02:36:57;9.70;99.90
37086;DHT22;23001;45.952;12.676;2024-03-22T02:39:22;9.70;99.90
37086;DHT22;23001;45.952;12.676;2024-03-22T02:41:48;9.80;99.90
37086;DHT22;23001;45.952;12.676;2024-03-22T02:44:14;9.80;99.90
37086;DHT22;23001;45.952;12.676;2024-03-22T02:46:39;9.80;99.90
37086;DHT22;23001;45.952;12.676;2024-03-22T02:49:05;9.80;99.90
37086;DHT22;23001;45.952;12.676;2024-03-22T02:51:31;9.70;99.90
37086;DHT22;23001;45.952;12.676;2024-03-22T02:53:57;9.70;99.90
37086;DHT22;23001;45.952;12.676;2024-03-22T02:56:23;9.70;99.90
37086;DHT22;23001;45.952;12.676;2024-03-22T02:58:52;9.70;99.90
37086;DHT22;23001;45.952;12.676;2024-03-22T03:01:17;9.60;99.90
37086;DHT22;23001;45.952;12.676;2024-03-22T03:03:43;9.60;99.90
37086;DHT22;23001;45.952;12.676;2024-03-22T03:06:09;9.60;99.90
37086;DHT22;23001;45.952;12.676;2024-03-22T03:08:35;9.60;99.90
37086;DHT22;23001;45.952;12.676;2024-03-22T03:11:03;9.50;99.90
37086;DHT22;23001;45.952;12.676;2024-03-22T03:13:29;9.40;99.90
37086;DHT22;23001;45.952;12.676;2024-03-22T03:15:54;9.50;99.90
37086;DHT22;23001;45.952;12.676;2024-03-22T03:18:20;9.50;99.90
37086;DHT22;23001;45.952;12.676;2024-03-22T03:20:46;9.50;99.90
37086;DHT22;23001;45.952;12.676;2024-03-22T03:23:11;9.50;99.90
37086;DHT22;23001;45.952;12.676;2024-03-22T03:25:37;9.40;99.90
37086;DHT22;23001;45.952;12.676;2024-03-22T03:28:03;9.30;99.90
37086;DHT22;23001;45.952;12.676;2024-03-22T03:30:29;9.40;99.90
37086;DHT22;23001;45.952;12.676;2024-03-22T03:32:54;9.40;99.90
37086;DHT22;23001;45.952;12.676;2024-03-22T03:35:20;9.40;99.90
37086;DHT22;23001;45.952;12.676;2024-03-22T03:37:46;9.60;99.90
37086;DHT22;23001;45.952;12.676;2024-03-22T03:40:12;9.50;99.90
37086;DHT22;23001;45.952;12.676;2024-03-22T03:42:48;9.50;99.90
37086;DHT22;23001;45.952;12.676;2024-03-22T03:45:16;9.40;99.90
37086;DHT22;23001;45.952;12.676;2024-03-22T03:47:42;9.40;99.90
37086;DHT22;23001;45.952;12.676;2024-03-22T03:50:08;9.40;99.90
37086;DHT22;23001;45.952;12.676;2024-03-22T03:52:34;9.40;99.90
37086;DHT22;23001;45.952;12.676;2024-03-22T03:54:59;9.40;99.90
37086;DHT22;23001;45.952;12.676;2024-03-22T03:57:25;9.30;99.90
37086;DHT22;23001;45.952;12.676;2024-03-22T03:59:51;9.30;99.90
37086;DHT22;23001;45.952;12.676;2024-03-22T04:02:17;9.30;99.90
37086;DHT22;23001;45.952;12.676;2024-03-22T04:04:43;9.30;99.90
37086;DHT22;23001;45.952;12.676;2024-03-22T04:07:11;9.30;99.90
37086;DHT22;23001;45.952;12.676;2024-03-22T04:09:37;9.20;99.90
37086;DHT22;23001;45.952;12.676;2024-03-22T04:12:02;9.20;99.90
37086;DHT22;23001;45.952;12.676;2024-03-22T04:14:28;9.20;99.90
37086;DHT22;23001;45.952;12.676;2024-03-22T04:16:54;9.30;99.90
37086;DHT22;23001;45.952;12.676;2024-03-22T04:19:21;9.20;99.90
37086;DHT22;23001;45.952;12.676;2024-03-22T04:21:48;9.30;99.90
37086;DHT22;23001;45.952;12.676;2024-03-22T04:24:14;9.20;99.90
37086;DHT22;23001;45.952;12.676;2024-03-22T04:26:40;9.20;99.90
37086;DHT22;23001;45.952;12.676;2024-03-22T04:29:05;9.10;99.90
37086;DHT22;23001;45.952;12.676;2024-03-22T04:31:31;9.20;99.90
37086;DHT22;23001;45.952;12.676;2024-03-22T04:33:57;9.30;99.90
37086;DHT22;23001;45.952;12.676;2024-03-22T04:36:22;9.20;99.90
37086;DHT22;23001;45.952;12.676;2024-03-22T04:38:48;9.20;99.90
37086;DHT22;23001;45.952;12.676;2024-03-22T04:41:14;9.20;99.90
37086;DHT22;23001;45.952;12.676;2024-03-22T04:43:40;9.20;99.90
37086;DHT22;23001;45.952;12.676;2024-03-22T04:46:05;9.10;99.90
37086;DHT22;23001;45.952;12.676;2024-03-22T04:48:31;9.10;99.90
37086;DHT22;23001;45.952;12.676;2024-03-22T04:50:57;9.10;99.90
37086;DHT22;23001;45.952;12.676;2024-03-22T04:53:22;9.10;99.90
37086;DHT22;23001;45.952;12.676;2024-03-22T04:55:50;9.10;99.90
37086;DHT22;23001;45.952;12.676;2024-03-22T04:58:22;9.10;99.90
37086;DHT22;23001;45.952;12.676;2024-03-22T05:00:48;9.10;99.90
37086;DHT22;23001;45.952;12.676;2024-03-22T05:03:15;9.10;99.90
37086;DHT22;23001;45.952;12.676;2024-03-22T05:05:42;9.10;99.90
37086;DHT22;23001;45.952;12.676;2024-03-22T05:08:08;9.00;99.90
37086;DHT22;23001;45.952;12.676;2024-03-22T05:10:35;9.00;99.90
37086;DHT22;23001;45.952;12.676;2024-03-22T05:13:01;8.90;99.90
37086;DHT22;23001;45.952;12.676;2024-03-22T05:15:26;8.80;99.90
37086;DHT22;23001;45.952;12.676;2024-03-22T05:17:53;8.90;99.90
37086;DHT22;23001;45.952;12.676;2024-03-22T05:20:20;8.80;99.90
37086;DHT22;23001;45.952;12.676;2024-03-22T05:22:47;8.80;99.90
37086;DHT22;23001;45.952;12.676;2024-03-22T05:25:13;8.80;99.90
37086;DHT22;23001;45.952;12.676;2024-03-22T05:27:41;8.90;99.90
37086;DHT22;23001;45.952;12.676;2024-03-22T05:30:11;8.80;99.90
37086;DHT22;23001;45.952;12.676;2024-03-22T05:32:37;8.70;99.90
37086;DHT22;23001;45.952;12.676;2024-03-22T05:35:04;8.70;99.90
37086;DHT22;23001;45.952;12.676;2024-03-22T05:37:30;8.70;99.90
37086;DHT22;23001;45.952;12.676;2024-03-22T05:39:56;8.80;99.90
37086;DHT22;23001;45.952;12.676;2024-03-22T05:42:22;8.80;99.90
37086;DHT22;23001;45.952;12.676;2024-03-22T05:44:48;8.80;99.90
37086;DHT22;23001;45.952;12.676;2024-03-22T05:47:14;8.70;99.90
37086;DHT22;23001;45.952;12.676;2024-03-22T05:49:40;8.90;99.90
37086;DHT22;23001;45.952;12.676;2024-03-22T05:52:08;8.90;99.90
37086;DHT22;23001;45.952;12.676;2024-03-22T05:54:34;9.00;99.90
37086;DHT22;23001;45.952;12.676;2024-03-22T05:57:02;9.00;99.90
37086;DHT22;23001;45.952;12.676;2024-03-22T05:59:28;9.10;99.90
37086;DHT22;23001;45.952;12.676;2024-03-22T06:01:54;9.10;99.90
37086;DHT22;23001;45.952;12.676;2024-03-22T06:04:23;9.20;99.90
37086;DHT22;23001;45.952;12.676;2024-03-22T06:06:49;9.40;99.90
37086;DHT22;23001;45.952;12.676;2024-03-22T06:09:18;9.60;99.90
37086;DHT22;23001;45.952;12.676;2024-03-22T06:11:52;9.80;99.90
37086;DHT22;23001;45.952;12.676;2024-03-22T06:14:18;9.90;99.90
37086;DHT22;23001;45.952;12.676;2024-03-22T06:16:46;10.10;99.90
37086;DHT22;23001;45.952;12.676;2024-03-22T06:19:34;10.20;99.90
37086;DHT22;23001;45.952;12.676;2024-03-22T06:22:02;10.40;99.90
37086;DHT22;23001;45.952;12.676;2024-03-22T07:00:52;13.00;99.90
37086;DHT22;23001;45.952;12.676;2024-03-22T07:03:28;13.20;99.90
37086;DHT22;23001;45.952;12.676;2024-03-22T07:06:05;13.40;99.90
37086;DHT22;23001;45.952;12.676;2024-03-22T07:08:57;13.50;99.90
37086;DHT22;23001;45.952;12.676;2024-03-22T07:25:37;14.70;99.90
37086;DHT22;23001;45.952;12.676;2024-03-22T07:31:21;15.10;99.90
37086;DHT22;23001;45.952;12.676;2024-03-22T07:33:50;15.20;99.90
37086;DHT22;23001;45.952;12.676;2024-03-22T07:36:21;15.30;99.90
37086;DHT22;23001;45.952;12.676;2024-03-22T08:04:53;15.80;99.90
37086;DHT22;23001;45.952;12.676;2024-03-22T08:07:20;15.70;99.90
37086;DHT22;23001;45.952;12.676;2024-03-22T08:09:57;15.90;99.90
37086;DHT22;23001;45.952;12.676;2024-03-22T08:12:27;16.00;99.90
37086;DHT22;23001;45.952;12.676;2024-03-22T08:15:02;16.10;99.90
37086;DHT22;23001;45.952;12.676;2024-03-22T08:17:41;16.00;99.90
37086;DHT22;23001;45.952;12.676;2024-03-22T08:20:13;16.10;99.90
37086;DHT22;23001;45.952;12.676;2024-03-22T08:22:41;16.20;99.90
37086;DHT22;23001;45.952;12.676;2024-03-22T08:25:11;16.30;99.90
37086;DHT22;23001;45.952;12.676;2024-03-22T08:27:48;16.30;99.90
37086;DHT22;23001;45.952;12.676;2024-03-22T08:30:14;16.20;99.90
37086;DHT22;23001;45.952;12.676;2024-03-22T08:32:48;16.30;99.90
37086;DHT22;23001;45.952;12.676;2024-03-22T08:35:19;16.40;99.90
37086;DHT22;23001;45.952;12.676;2024-03-22T08:37:49;16.50;99.90
37086;DHT22;23001;45.952;12.676;2024-03-22T08:40:23;16.30;99.90
37086;DHT22;23001;45.952;12.676;2024-03-22T08:42:57;16.40;99.90
37086;DHT22;23001;45.952;12.676;2024-03-22T08:45:23;16.40;99.90
37086;DHT22;23001;45.952;12.676;2024-03-22T08:47:49;16.40;99.90
37086;DHT22;23001;45.952;12.676;2024-03-22T08:50:18;16.50;99.90
37086;DHT22;23001;45.952;12.676;2024-03-22T08:52:44;16.50;99.90
37086;DHT22;23001;45.952;12.676;2024-03-22T08:55:13;16.50;99.90
37086;DHT22;23001;45.952;12.676;2024-03-22T08:57:49;16.50;99.90
37086;DHT22;23001;45.952;12.676;2024-03-22T09:00:19;16.50;99.90
37086;DHT22;23001;45.952;12.676;2024-03-22T09:02:50;16.50;99.90
37086;DHT22;23001;45.952;12.676;2024-03-22T09:05:21;16.60;99.90
37086;DHT22;23001;45.952;12.676;2024-03-22T09:07:48;16.70;99.90
37086;DHT22;23001;45.952;12.676;2024-03-22T09:10:19;16.60;99.90
37086;DHT22;23001;45.952;12.676;2024-03-22T09:12:47;16.80;99.90
37086;DHT22;23001;45.952;12.676;2024-03-22T09:15:18;16.80;99.90
37086;DHT22;23001;45.952;12.676;2024-03-22T09:17:47;16.80;99.90
37086;DHT22;23001;45.952;12.676;2024-03-22T09:20:18;16.90;99.90
37086;DHT22;23001;45.952;12.676;2024-03-22T09:22:48;16.80;99.90
37086;DHT22;23001;45.952;12.676;2024-03-22T09:25:16;16.90;99.90
37086;DHT22;23001;45.952;12.676;2024-03-22T09:27:46;16.90;99.90
37086;DHT22;23001;45.952;12.676;2024-03-22T09:30:17;16.80;99.90
37086;DHT22;23001;45.952;12.676;2024-03-22T09:32:44;16.90;99.90
37086;DHT22;23001;45.952;12.676;2024-03-22T09:35:10;16.90;99.90
37086;DHT22;23001;45.952;12.676;2024-03-22T09:37:40;17.00;99.90
37086;DHT22;23001;45.952;12.676;2024-03-22T09:40:06;17.00;99.90
37086;DHT22;23001;45.952;12.676;2024-03-22T09:42:44;17.00;99.90
37086;DHT22;23001;45.952;12.676;2024-03-22T10:06:36;17.50;99.90
37086;DHT22;23001;45.952;12.676;2024-03-22T10:09:03;17.50;99.90
37086;DHT22;23001;45.952;12.676;2024-03-22T10:11:30;17.50;99.90
37086;DHT22;23001;45.952;12.676;2024-03-22T10:13:55;17.70;99.90
37086;DHT22;23001;45.952;12.676;2024-03-22T10:16:22;17.70;99.90
37086;DHT22;23001;45.952;12.676;2024-03-22T10:18:48;17.60;99.90
37086;DHT22;23001;45.952;12.676;2024-03-22T10:21:17;17.70;99.90
37086;DHT22;23001;45.952;12.676;2024-03-22T10:23:44;17.80;99.90
37086;DHT22;23001;45.952;12.676;2024-03-22T10:26:10;17.90;99.90
37086;DHT22;23001;45.952;12.676;2024-03-22T10:28:36;17.90;99.90
37086;DHT22;23001;45.952;12.676;2024-03-22T10:31:10;18.10;99.90
37086;DHT22;23001;45.952;12.676;2024-03-22T10:33:35;18.10;99.90
37086;DHT22;23001;45.952;12.676;2024-03-22T10:36:02;18.30;99.90
37086;DHT22;23001;45.952;12.676;2024-03-22T10:38:28;18.30;99.90
37086;DHT22;23001;45.952;12.676;2024-03-22T10:40:54;18.20;99.90
37086;DHT22;23001;45.952;12.676;2024-03-22T10:43:21;18.20;99.90
37086;DHT22;23001;45.952;12.676;2024-03-22T10:45:48;18.30;99.90
37086;DHT22;23001;45.952;12.676;2024-03-22T10:48:17;18.20;99.90
37086;DHT22;23001;45.952;12.676;2024-03-22T10:50:43;18.30;99.90
37086;DHT22;23001;45.952;12.676;2024-03-22T10:53:12;18.30;99.90
37086;DHT22;23001;45.952;12.676;2024-03-22T10:55:42;18.40;99.90
37086;DHT22;23001;45.952;12.676;2024-03-22T10:58:21;18.40;99.90
37086;DHT22;23001;45.952;12.676;2024-03-22T11:00:46;18.50;99.90
37086;DHT22;23001;45.952;12.676;2024-03-22T11:03:15;18.60;99.90
37086;DHT22;23001;45.952;12.676;2024-03-22T11:05:48;18.60;99.90
37086;DHT22;23001;45.952;12.676;2024-03-22T11:08:24;18.50;99.90
37086;DHT22;23001;45.952;12.676;2024-03-22T11:10:50;18.40;99.90
37086;DHT22;23001;45.952;12.676;2024-03-22T11:13:17;18.50;99.90
37086;DHT22;23001;45.952;12.676;2024-03-22T11:15:43;18.70;99.90
37086;DHT22;23001;45.952;12.676;2024-03-22T11:18:08;18.60;99.90
37086;DHT22;23001;45.952;12.676;2024-03-22T11:20:37;18.70;99.60
37086;DHT22;23001;45.952;12.676;2024-03-22T11:23:06;18.70;99.90
37086;DHT22;23001;45.952;12.676;2024-03-22T11:25:33;18.60;99.00
37086;DHT22;23001;45.952;12.676;2024-03-22T11:28:00;18.80;98.50
37086;DHT22;23001;45.952;12.676;2024-03-22T11:30:29;18.80;99.60
37086;DHT22;23001;45.952;12.676;2024-03-22T11:32:55;18.80;99.70
37086;DHT22;23001;45.952;12.676;2024-03-22T11:35:21;18.80;99.40
37086;DHT22;23001;45.952;12.676;2024-03-22T11:37:49;19.00;99.70
37086;DHT22;23001;45.952;12.676;2024-03-22T11:40:15;19.10;98.90
37086;DHT22;23001;45.952;12.676;2024-03-22T11:42:49;19.00;98.20
37086;DHT22;23001;45.952;12.676;2024-03-22T11:45:17;18.90;97.40
37086;DHT22;23001;45.952;12.676;2024-03-22T11:47:47;18.90;98.20
37086;DHT22;23001;45.952;12.676;2024-03-22T11:50:13;18.90;96.40
37086;DHT22;23001;45.952;12.676;2024-03-22T11:52:43;19.00;97.60
37086;DHT22;23001;45.952;12.676;2024-03-22T11:55:12;18.90;97.10
37086;DHT22;23001;45.952;12.676;2024-03-22T11:57:37;19.10;97.90
37086;DHT22;23001;45.952;12.676;2024-03-22T12:00:04;19.00;97.00
37086;DHT22;23001;45.952;12.676;2024-03-22T12:02:35;18.90;98.20
37086;DHT22;23001;45.952;12.676;2024-03-22T12:05:01;19.00;97.60
37086;DHT22;23001;45.952;12.676;2024-03-22T12:07:28;19.20;96.80
37086;DHT22;23001;45.952;12.676;2024-03-22T12:09:54;19.40;95.50
37086;DHT22;23001;45.952;12.676;2024-03-22T12:12:21;19.30;95.90
37086;DHT22;23001;45.952;12.676;2024-03-22T12:14:47;19.30;96.50
37086;DHT22;23001;45.952;12.676;2024-03-22T12:17:14;19.30;97.00
37086;DHT22;23001;45.952;12.676;2024-03-22T12:19:39;19.30;96.90
37086;DHT22;23001;45.952;12.676;2024-03-22T12:22:06;19.20;97.20
37086;DHT22;23001;45.952;12.676;2024-03-22T12:24:32;19.40;97.00
37086;DHT22;23001;45.952;12.676;2024-03-22T12:26:58;19.50;97.20
37086;DHT22;23001;45.952;12.676;2024-03-22T12:29:24;19.50;96.70
37086;DHT22;23001;45.952;12.676;2024-03-22T12:31:50;19.40;96.40
37086;DHT22;23001;45.952;12.676;2024-03-22T12:34:16;19.50;95.60
37086;DHT22;23001;45.952;12.676;2024-03-22T12:36:43;19.40;95.30
37086;DHT22;23001;45.952;12.676;2024-03-22T12:39:09;19.40;95.00
37086;DHT22;23001;45.952;12.676;2024-03-22T12:41:35;19.40;93.20
37086;DHT22;23001;45.952;12.676;2024-03-22T12:44:00;19.50;94.20
37086;DHT22;23001;45.952;12.676;2024-03-22T12:46:27;19.40;93.10
37086;DHT22;23001;45.952;12.676;2024-03-22T12:48:55;19.40;94.00
37086;DHT22;23001;45.952;12.676;2024-03-22T12:51:21;19.40;94.40
37086;DHT22;23001;45.952;12.676;2024-03-22T12:53:46;19.40;93.20
37086;DHT22;23001;45.952;12.676;2024-03-22T12:56:12;19.50;93.50
37086;DHT22;23001;45.952;12.676;2024-03-22T12:58:38;19.50;94.70
37086;DHT22;23001;45.952;12.676;2024-03-22T13:01:08;19.50;94.80
37086;DHT22;23001;45.952;12.676;2024-03-22T13:03:34;19.50;94.50
37086;DHT22;23001;45.952;12.676;2024-03-22T13:06:00;19.70;96.00
37086;DHT22;23001;45.952;12.676;2024-03-22T13:08:25;19.60;95.90
37086;DHT22;23001;45.952;12.676;2024-03-22T13:10:51;19.60;96.70
37086;DHT22;23001;45.952;12.676;2024-03-22T13:13:18;19.60;97.00
37086;DHT22;23001;45.952;12.676;2024-03-22T13:15:43;19.60;97.00
37086;DHT22;23001;45.952;12.676;2024-03-22T13:18:09;19.70;96.50
37086;DHT22;23001;45.952;12.676;2024-03-22T13:20:35;19.90;96.10
37086;DHT22;23001;45.952;12.676;2024-03-22T13:23:02;19.80;96.90
37086;DHT22;23001;45.952;12.676;2024-03-22T13:25:28;19.80;96.40
37086;DHT22;23001;45.952;12.676;2024-03-22T13:27:54;19.80;96.50
37086;DHT22;23001;45.952;12.676;2024-03-22T13:30:19;19.80;96.90
37086;DHT22;23001;45.952;12.676;2024-03-22T13:32:45;20.00;97.50
37086;DHT22;23001;45.952;12.676;2024-03-22T13:35:11;20.20;96.90
37086;DHT22;23001;45.952;12.676;2024-03-22T13:37:36;20.10;97.30
37086;DHT22;23001;45.952;12.676;2024-03-22T13:40:02;20.00;97.00
37086;DHT22;23001;45.952;12.676;2024-03-22T13:42:28;19.90;97.30
37086;DHT22;23001;45.952;12.676;2024-03-22T13:44:55;19.90;96.60
37086;DHT22;23001;45.952;12.676;2024-03-22T13:47:21;19.80;97.10
37086;DHT22;23001;45.952;12.676;2024-03-22T13:49:47;19.70;97.40
37086;DHT22;23001;45.952;12.676;2024-03-22T13:52:13;19.70;96.50
37086;DHT22;23001;45.952;12.676;2024-03-22T13:54:39;19.80;96.90
37086;DHT22;23001;45.952;12.676;2024-03-22T13:57:04;19.90;96.80
37086;DHT22;23001;45.952;12.676;2024-03-22T13:59:30;20.00;96.40
37086;DHT22;23001;45.952;12.676;2024-03-22T14:01:56;19.90;96.60
37086;DHT22;23001;45.952;12.676;2024-03-22T14:04:25;20.10;97.00
37086;DHT22;23001;45.952;12.676;2024-03-22T14:06:52;20.00;96.60
37086;DHT22;23001;45.952;12.676;2024-03-22T14:09:18;20.00;97.00
37086;DHT22;23001;45.952;12.676;2024-03-22T14:11:44;20.10;96.20
37086;DHT22;23001;45.952;12.676;2024-03-22T14:14:11;19.90;96.10
37086;DHT22;23001;45.952;12.676;2024-03-22T14:16:39;19.90;96.20
37086;DHT22;23001;45.952;12.676;2024-03-22T14:19:06;19.90;95.80
37086;DHT22;23001;45.952;12.676;2024-03-22T14:21:32;19.90;96.50
37086;DHT22;23001;45.952;12.676;2024-03-22T14:23:58;20.00;96.00
37086;DHT22;23001;45.952;12.676;2024-03-22T14:26:24;20.00;96.10
37086;DHT22;23001;45.952;12.676;2024-03-22T14:28:49;20.10;96.80
37086;DHT22;23001;45.952;12.676;2024-03-22T14:31:15;20.00;96.00
37086;DHT22;23001;45.952;12.676;2024-03-22T14:33:41;20.10;96.20
37086;DHT22;23001;45.952;12.676;2024-03-22T14:36:08;20.10;95.60
37086;DHT22;23001;45.952;12.676;2024-03-22T14:38:47;19.90;95.80
37086;DHT22;23001;45.952;12.676;2024-03-22T14:41:12;20.00;95.70
37086;DHT22;23001;45.952;12.676;2024-03-22T14:43:38;20.00;95.80
37086;DHT22;23001;45.952;12.676;2024-03-22T14:46:04;20.00;95.80
37086;DHT22;23001;45.952;12.676;2024-03-22T14:48:29;20.10;96.40
37086;DHT22;23001;45.952;12.676;2024-03-22T14:50:55;20.00;96.10
37086;DHT22;23001;45.952;12.676;2024-03-22T14:53:21;20.00;96.40
37086;DHT22;23001;45.952;12.676;2024-03-22T14:55:53;20.10;95.90
37086;DHT22;23001;45.952;12.676;2024-03-22T14:58:20;20.00;95.80
37086;DHT22;23001;45.952;12.676;2024-03-22T15:00:56;20.00;95.70
37086;DHT22;23001;45.952;12.676;2024-03-22T15:03:22;19.90;95.20
37086;DHT22;23001;45.952;12.676;2024-03-22T15:05:52;19.90;95.80
37086;DHT22;23001;45.952;12.676;2024-03-22T15:08:19;19.90;96.10
37086;DHT22;23001;45.952;12.676;2024-03-22T15:10:45;19.90;95.90
37086;DHT22;23001;45.952;12.676;2024-03-22T15:13:12;19.80;95.80
37086;DHT22;23001;45.952;12.676;2024-03-22T15:15:38;19.80;95.40
37086;DHT22;23001;45.952;12.676;2024-03-22T15:18:04;19.70;95.90
37086;DHT22;23001;45.952;12.676;2024-03-22T15:20:31;19.80;95.60
37086;DHT22;23001;45.952;12.676;2024-03-22T15:22:57;19.80;96.10
37086;DHT22;23001;45.952;12.676;2024-03-22T15:25:23;19.70;97.00
37086;DHT22;23001;45.952;12.676;2024-03-22T15:27:49;19.70;97.30
37086;DHT22;23001;45.952;12.676;2024-03-22T15:30:15;19.70;96.70
37086;DHT22;23001;45.952;12.676;2024-03-22T15:32:41;19.70;97.70
37086;DHT22;23001;45.952;12.676;2024-03-22T15:35:07;19.70;97.30
37086;DHT22;23001;45.952;12.676;2024-03-22T15:37:34;19.60;97.10
37086;DHT22;23001;45.952;12.676;2024-03-22T15:40:01;19.60;97.50
37086;DHT22;23001;45.952;12.676;2024-03-22T15:42:26;19.60;97.10
37086;DHT22;23001;45.952;12.676;2024-03-22T15:44:53;19.50;98.00
37086;DHT22;23001;45.952;12.676;2024-03-22T15:47:19;19.40;97.40
37086;DHT22;23001;45.952;12.676;2024-03-22T15:49:44;19.40;97.30
37086;DHT22;23001;45.952;12.676;2024-03-22T15:52:10;19.40;97.80
37086;DHT22;23001;45.952;12.676;2024-03-22T15:54:36;19.40;98.20
37086;DHT22;23001;45.952;12.676;2024-03-22T15:57:01;19.30;97.70
37086;DHT22;23001;45.952;12.676;2024-03-22T15:59:28;19.30;98.10
37086;DHT22;23001;45.952;12.676;2024-03-22T16:01:53;19.20;97.30
37086;DHT22;23001;45.952;12.676;2024-03-22T16:04:21;19.20;97.20
37086;DHT22;23001;45.952;12.676;2024-03-22T16:06:47;19.20;97.50
37086;DHT22;23001;45.952;12.676;2024-03-22T16:09:13;19.10;97.20
37086;DHT22;23001;45.952;12.676;2024-03-22T16:11:39;19.00;96.80
37086;DHT22;23001;45.952;12.676;2024-03-22T16:14:08;19.00;96.80
37086;DHT22;23001;45.952;12.676;2024-03-22T16:16:41;18.90;97.20
37086;DHT22;23001;45.952;12.676;2024-03-22T16:19:07;18.90;97.50
37086;DHT22;23001;45.952;12.676;2024-03-22T16:21:36;18.90;97.10
37086;DHT22;23001;45.952;12.676;2024-03-22T16:24:02;18.90;96.50
37086;DHT22;23001;45.952;12.676;2024-03-22T16:26:35;18.80;96.90
37086;DHT22;23001;45.952;12.676;2024-03-22T16:29:05;18.70;96.90
37086;DHT22;23001;45.952;12.676;2024-03-22T16:31:31;18.60;97.10
37086;DHT22;23001;45.952;12.676;2024-03-22T16:33:57;18.50;97.00
37086;DHT22;23001;45.952;12.676;2024-03-22T16:36:23;18.50;97.10
37086;DHT22;23001;45.952;12.676;2024-03-22T16:38:49;18.50;96.80
37086;DHT22;23001;45.952;12.676;2024-03-22T16:41:14;18.40;97.30
37086;DHT22;23001;45.952;12.676;2024-03-22T16:43:43;18.30;97.50
37086;DHT22;23001;45.952;12.676;2024-03-22T16:46:21;18.20;97.60
37086;DHT22;23001;45.952;12.676;2024-03-22T16:51:47;18.20;97.30
37086;DHT22;23001;45.952;12.676;2024-03-22T16:54:49;18.10;97.00
37086;DHT22;23001;45.952;12.676;2024-03-22T16:57:20;18.10;97.00
37086;DHT22;23001;45.952;12.676;2024-03-22T16:59:46;17.90;97.10
37086;DHT22;23001;45.952;12.676;2024-03-22T17:02:12;17.90;97.60
37086;DHT22;23001;45.952;12.676;2024-03-22T17:04:38;17.80;97.50